createdAt,value
2023-04-23T00:01:53.526Z,14.00
2023-04-23T00:11:58.078Z,14.00
2023-04-23T00:22:03.079Z,13.98
2023-04-23T00:32:07.713Z,13.90
2023-04-23T00:42:13.701Z,13.95
2023-04-23T00:52:17.448Z,13.77
2023-04-23T01:02:22.618Z,13.74
2023-04-23T01:12:26.391Z,13.71
2023-04-23T01:22:31.390Z,13.67
2023-04-23T01:32:35.994Z,13.66
2023-04-23T01:42:41.750Z,13.58
2023-04-23T01:52:46.414Z,13.53
2023-04-23T02:02:52.836Z,13.48
2023-04-23T02:12:56.605Z,13.61
2023-04-23T02:23:02.234Z,13.53
2023-04-23T02:33:07.444Z,13.46
2023-04-23T02:43:12.326Z,13.53
2023-04-23T02:53:16.306Z,13.51
2023-04-23T03:03:21.479Z,13.55
2023-04-23T03:13:25.836Z,13.41
2023-04-23T03:23:30.956Z,13.33
2023-04-23T03:33:34.777Z,13.30
2023-04-23T03:43:39.679Z,13.32
2023-04-23T03:53:43.435Z,13.16
2023-04-23T04:03:48.810Z,13.11
2023-04-23T04:13:55.603Z,13.06
2023-04-23T04:24:04.658Z,13.12
2023-04-23T04:34:10.513Z,13.05
2023-04-23T04:44:16.587Z,13.07
2023-04-23T04:54:21.855Z,13.08
2023-04-23T05:04:26.847Z,13.13
2023-04-23T05:14:30.613Z,13.28
2023-04-23T05:24:38.510Z,13.52
2023-04-23T05:34:42.387Z,13.45
2023-04-23T05:44:47.584Z,13.31
2023-04-23T05:54:51.607Z,13.45
2023-04-23T06:04:56.801Z,13.66
2023-04-23T06:15:00.715Z,13.80
2023-04-23T06:25:07.312Z,14.05
2023-04-23T06:35:11.130Z,14.45
2023-04-23T06:45:16.884Z,15.09
2023-04-23T06:55:22.001Z,15.63
2023-04-23T07:05:27.172Z,15.03
2023-04-23T07:15:30.755Z,15.23
2023-04-23T07:25:35.686Z,16.20
2023-04-23T07:35:39.291Z,16.65
2023-04-23T07:45:44.278Z,16.70
2023-04-23T07:55:47.981Z,16.45
2023-04-23T08:05:52.995Z,16.68
2023-04-23T08:15:56.616Z,16.80
2023-04-23T08:26:02.843Z,17.07
2023-04-23T08:36:06.874Z,17.97
2023-04-23T08:46:14.315Z,17.61
2023-04-23T08:56:18.380Z,16.91
2023-04-23T09:06:23.473Z,16.71
2023-04-23T09:16:28.171Z,16.68
2023-04-23T09:26:33.192Z,16.84
2023-04-23T09:36:38.330Z,17.72
2023-04-23T09:46:45.464Z,18.23
2023-04-23T09:56:53.725Z,18.82
2023-04-23T10:17:11.936Z,19.29
2023-04-23T10:27:30.808Z,19.28
2023-04-23T10:37:41.340Z,19.84
2023-04-23T10:47:47.263Z,20.23
2023-04-23T10:58:01.628Z,19.99
2023-04-23T11:08:18.809Z,20.95
2023-04-23T11:18:25.290Z,20.48
2023-04-23T11:28:34.281Z,20.92
2023-04-23T11:38:38.735Z,20.92
2023-04-23T11:48:43.716Z,20.10
2023-04-23T11:58:47.541Z,20.09
2023-04-23T12:08:52.648Z,20.02
2023-04-23T12:18:56.371Z,20.42
2023-04-23T12:29:01.459Z,21.02
2023-04-23T12:39:27.365Z,21.28
2023-04-23T12:49:33.261Z,21.67
2023-04-23T12:59:36.859Z,20.91
2023-04-23T13:09:42.251Z,20.68
2023-04-23T13:19:46.421Z,20.70
2023-04-23T13:29:51.403Z,20.50
2023-04-23T13:39:54.972Z,20.87
2023-04-23T13:50:00.002Z,20.66
2023-04-23T14:00:04.197Z,21.06
2023-04-23T14:10:10.601Z,20.77
2023-04-23T14:20:15.855Z,21.00
2023-04-23T14:30:24.880Z,21.27
2023-04-23T14:40:28.461Z,21.69
2023-04-23T14:50:33.592Z,21.55
2023-04-23T15:00:37.783Z,21.50
2023-04-23T15:10:44.966Z,21.25
2023-04-23T15:20:48.916Z,21.35
2023-04-23T15:30:54.280Z,20.98
2023-04-23T15:40:57.962Z,20.74
2023-04-23T15:51:02.892Z,20.50
2023-04-23T16:01:07.307Z,20.48
2023-04-23T16:11:14.718Z,20.47
2023-04-23T16:21:18.426Z,20.38
2023-04-23T16:31:23.745Z,19.97
2023-04-23T16:41:27.512Z,19.60
2023-04-23T16:51:33.062Z,18.08
2023-04-23T17:01:36.811Z,16.96
2023-04-23T17:11:42.032Z,16.45
2023-04-23T17:21:45.890Z,16.32
2023-04-23T17:31:51.254Z,16.06
2023-04-23T17:41:57.612Z,15.93
2023-04-23T17:52:03.366Z,15.81
2023-04-23T18:02:07.222Z,15.63
2023-04-23T18:12:12.228Z,15.55
2023-04-23T18:22:16.492Z,15.43
2023-04-23T18:32:33.634Z,15.07
2023-04-23T18:42:38.366Z,14.99
2023-04-23T18:52:43.422Z,14.66
2023-04-23T19:02:48.476Z,14.81
2023-04-23T19:12:57.184Z,14.53
2023-04-23T19:23:01.372Z,14.35
2023-04-23T19:33:06.501Z,14.22
2023-04-23T19:43:12.186Z,14.00
2023-04-23T19:53:18.506Z,13.79
2023-04-23T20:03:22.443Z,13.65
2023-04-23T20:13:27.638Z,13.56
2023-04-23T20:23:31.418Z,13.42
2023-04-23T20:33:37.405Z,13.03
2023-04-23T20:43:43.670Z,13.08
2023-04-23T20:53:49.299Z,13.33
2023-04-23T21:03:53.754Z,13.47
2023-04-23T21:14:00.956Z,13.58
2023-04-23T21:24:04.993Z,13.62
2023-04-23T21:34:10.303Z,13.65
2023-04-23T21:44:14.232Z,13.48
2023-04-23T21:54:19.169Z,13.68
2023-04-23T22:04:23.092Z,13.67
2023-04-23T22:14:28.183Z,13.75
2023-04-23T22:24:31.962Z,13.81
2023-04-23T22:34:36.991Z,13.92
2023-04-23T22:44:40.711Z,13.79
2023-04-23T22:54:46.753Z,13.73
2023-04-23T23:04:50.863Z,13.70
2023-04-23T23:14:56.095Z,13.54
2023-04-23T23:24:59.990Z,13.29
2023-04-23T23:35:06.436Z,13.23
2023-04-23T23:45:11.266Z,12.94
2023-04-23T23:55:16.329Z,13.15
